Rogersville, TN

11:11 AM EDT on August 30, 2014 (GMT -0400)
Beech Creek | Change Station
CLOSE
Current Station
Personal Weather Station
Location: Greeneville, TN
Elevation: 1240 ft
Nearby Weather Stations

Elev 1240 ft 36.39 °N, 82.81 °W | Updated 9 minutes ago

Partly Cloudy
Partly Cloudy
78.8 °F
Feels Like 82 °F
N
2.7
Wind Variable Wind from WSW

Today
High -- | Low -- °F
--% Chance of Precip.
Yesterday
High -- | Low -- °F
Precip. -- in
7:01 AM 8:02 PM
Waxing Crescent, 22% visible
Pressure 30.13 in
Visibility 10.0 miles
Clouds Clear
Heat Index 82 °F
Dew Point 71 °F
Humidity 78%
Rainfall 0.00 in
Snow Depth Not available.
UV 6 out of 12
Pollen 9.30 out of 12
Air Quality Not available.
Flu Activity Not available.
METAR KTRI 301453Z 07003KT 10SM CLR 27/19 A3021 RMK AO2 SLP203 T02720194 58000 $

More Conditions Fewer Conditions

Pressure 30.13 in
Visibility 10.0 miles
Clouds Clear
Heat Index 82 °F
Dew Point 71 °F
Humidity 78%
Rainfall 0.00 in
Snow Depth Not available.
UV 6 out of 12
Pollen 9.30 out of 12
Air Quality Not available.
Flu Activity Not available.
METAR KTRI 301453Z 07003KT 10SM CLR 27/19 A3021 RMK AO2 SLP203 T02720194 58000 $

More Conditions Fewer Conditions

10-Day Weather Forecast

Almanac

Astronomy

Aug. 30, 2014 Rise Set
Actual Time 7:01 AM EDT 8:02 PM EDT
Civil Twilight 6:35 AM EDT 8:29 PM EDT
Nautical Twilight 6:03 AM EDT 9:00 PM EDT
Astronomical Twilight 5:31 AM EDT 9:32 PM EDT
Moon 11:39 AM EDT 10:45 PM EDT
Length of Visible Light 13h 53m
Length of Day
13h 00m
Tomorrow will be 2m 12s shorter.
Waxing Crescent, 22% of the Moon is Illuminated
Today
Waxing Crescent
Sep 2
First Quarter
Sep 8
Full
Sep 15
Last Quarter
Sep 24
New

Today's Extremes

State Highs State Lows

Community

WunderPhotos

Upload Photos

1,748,543 photos uploaded!

WunderBlogs® & News

Nearby

Snow Depth

Station Depth Elevation
No new snow has been reported.

Earthquake Activity

City Distance Mag. Time & Date
No recent earthquake activity has been reported nearby.
Minimum magnitude displayed is 2.5.

Coastal Water Temperatures

Place Temperature
No Stations Reporting

Nearby Weather Stations